Time;durP1;ratioP1;P1;durP2;ratioP2;P2;SDS_P1;SDS_P2;PMS_P1;PMS_P2;Temp;Humidity;BMP_temperature;BMP_pressure;BME280_temperature;BME280_humidity;BME280_pressure;Samples;Min_cycle;Max_cycle;Signal;HPM_P1;HPM_P2
2022/12/26 00:01:48;;;;;;;41.43;33.80;;;;;;;8.55;100.00;100879.28;4833986;29;20125;-92
2022/12/26 00:04:15;;;;;;;43.07;35.07;;;;;;;8.54;100.00;100872.25;4840599;29;20098;-92
2022/12/26 00:06:40;;;;;;;42.30;33.93;;;;;;;8.54;100.00;100872.25;4836788;29;20992;-88
2022/12/26 00:09:06;;;;;;;45.10;35.00;;;;;;;8.54;100.00;100874.09;4835219;29;20036;-88
2022/12/26 00:11:33;;;;;;;43.97;35.07;;;;;;;8.52;100.00;100866.19;4852332;29;20482;-88
2022/12/26 00:14:02;;;;;;;45.73;35.63;;;;;;;8.54;100.00;100883.06;4852530;29;20025;-88
2022/12/26 00:16:28;;;;;;;44.13;35.20;;;;;;;8.52;100.00;100882.41;4849174;29;20510;-88
2022/12/26 00:18:54;;;;;;;44.60;35.77;;;;;;;8.53;100.00;100889.47;4839195;29;20296;-88
2022/12/26 00:21:21;;;;;;;46.10;34.97;;;;;;;8.58;100.00;100886.16;4848215;29;20042;-89
2022/12/26 00:23:46;;;;;;;46.47;35.77;;;;;;;8.59;100.00;100890.56;4851725;29;20113;-88
2022/12/26 00:26:15;;;;;;;44.97;34.70;;;;;;;8.57;100.00;100882.66;4835166;29;20105;-88
2022/12/26 00:28:42;;;;;;;44.97;35.27;;;;;;;8.56;100.00;100902.56;4849649;29;20022;-88
2022/12/26 00:31:11;;;;;;;45.30;34.57;;;;;;;8.56;100.00;100904.47;4839826;29;20017;-89
2022/12/26 00:33:37;;;;;;;44.13;34.73;;;;;;;8.59;100.00;100907.59;4849812;29;20468;-88
2022/12/26 00:36:06;;;;;;;47.13;36.60;;;;;;;8.62;100.00;100930.66;4851305;29;21822;-88
2022/12/26 00:38:36;;;;;;;46.23;36.70;;;;;;;8.61;100.00;100929.00;4849089;29;20092;-88
2022/12/26 00:41:02;;;;;;;49.20;36.73;;;;;;;8.63;100.00;100920.72;4853514;29;20038;-88
2022/12/26 00:43:28;;;;;;;45.10;36.60;;;;;;;8.64;100.00;100925.09;4849493;29;20041;-88
2022/12/26 00:45:53;;;;;;;46.87;37.33;;;;;;;8.63;100.00;100916.13;4833170;29;20090;-88
2022/12/26 00:48:19;;;;;;;46.97;37.40;;;;;;;8.63;100.00;100920.72;4836440;29;20078;-92
2022/12/26 00:50:44;;;;;;;44.37;37.07;;;;;;;8.61;100.00;100919.03;4837223;29;20104;-92
2022/12/26 00:53:10;;;;;;;46.80;38.37;;;;;;;8.60;100.00;100925.47;4837023;29;20537;-92
2022/12/26 00:55:35;;;;;;;48.70;38.07;;;;;;;8.60;100.00;100922.75;4835587;29;20094;-88
2022/12/26 00:58:03;;;;;;;45.93;37.00;;;;;;;8.60;100.00;100927.34;4851603;29;20114;-88
2022/12/26 01:00:28;;;;;;;44.80;36.50;;;;;;;8.61;100.00;100929.00;4850888;29;20029;-89
2022/12/26 01:02:56;;;;;;;46.73;39.80;;;;;;;8.64;100.00;100927.78;4852662;29;20041;-89
2022/12/26 01:05:22;;;;;;;48.87;39.33;;;;;;;8.62;100.00;100933.34;4838687;29;20116;-88
2022/12/26 01:07:48;;;;;;;48.50;40.07;;;;;;;8.59;100.00;100918.41;4854632;29;20463;-89
2022/12/26 01:10:13;;;;;;;46.33;37.93;;;;;;;8.59;100.00;100910.31;4839819;29;20037;-88
2022/12/26 01:12:39;;;;;;;45.83;39.80;;;;;;;8.57;100.00;100911.53;4851523;29;20108;-89
2022/12/26 01:15:06;;;;;;;46.37;38.90;;;;;;;8.54;100.00;100931.66;4852696;29;20040;-88
2022/12/26 01:17:32;;;;;;;47.27;39.80;;;;;;;8.49;100.00;100942.22;4844552;29;20026;-89
2022/12/26 01:19:57;;;;;;;48.20;41.20;;;;;;;8.49;100.00;100944.91;4833334;29;20086;-89
2022/12/26 01:22:23;;;;;;;48.47;40.53;;;;;;;8.47;100.00;100938.84;4849033;29;20094;-88
2022/12/26 01:24:52;;;;;;;50.63;42.10;;;;;;;8.51;100.00;100952.81;4832329;29;20380;-88
2022/12/26 01:27:18;;;;;;;53.10;42.27;;;;;;;8.50;100.00;100937.63;4849580;29;20033;-89
2022/12/26 01:29:43;;;;;;;52.03;41.97;;;;;;;8.49;100.00;100930.59;4854072;29;20112;-89
2022/12/26 01:32:09;;;;;;;51.47;42.13;;;;;;;8.51;100.00;100940.13;4838779;29;20502;-88
2022/12/26 01:34:34;;;;;;;48.33;40.33;;;;;;;8.51;100.00;100926.63;4850899;29;20443;-89
2022/12/26 01:36:59;;;;;;;46.97;38.97;;;;;;;8.48;100.00;100937.84;4852584;29;20034;-89
2022/12/26 01:39:25;;;;;;;47.30;39.20;;;;;;;8.48;100.00;100920.81;4838788;29;20040;-88
2022/12/26 01:41:50;;;;;;;47.67;40.37;;;;;;;8.49;100.00;100931.41;4854496;29;20432;-89
2022/12/26 01:45:10;;;;;;;45.47;37.83;;;;;;;8.48;100.00;100937.00;4839255;29;20116;-88
2022/12/26 01:47:41;;;;;;;43.03;35.50;;;;;;;8.39;100.00;100942.53;4797890;29;20079;-89
2022/12/26 01:50:34;;;;;;;41.67;35.70;;;;;;;8.39;100.00;100953.31;4830306;29;20045;-89
2022/12/26 01:53:08;;;;;;;42.30;35.73;;;;;;;8.36;100.00;100937.50;4828556;29;20037;-88
2022/12/26 01:55:34;;;;;;;;;;;;;;;8.49;100.00;100949.50;4839484;29;20037;-89
2022/12/26 01:58:04;;;;;;;41.63;35.67;;;;;;;8.35;100.00;100935.00;4836771;29;19983;-88
2022/12/26 02:00:31;;;;;;;42.27;35.00;;;;;;;8.37;100.00;100943.75;4849430;29;20399;-89
2022/12/26 02:05:42;;;;;;;41.60;34.70;;;;;;;8.37;100.00;100936.47;4853605;29;20117;-89
2022/12/26 02:08:11;;;;;;;42.93;36.07;;;;;;;8.38;100.00;100942.72;4856158;29;20033;-88
2022/12/26 02:10:51;;;;;;;42.33;35.67;;;;;;;8.41;100.00;100939.63;4848223;29;20034;-89
2022/12/26 02:13:18;;;;;;;42.17;35.03;;;;;;;8.39;100.00;100941.66;4854854;29;20033;-89
2022/12/26 02:15:44;;;;;;;41.30;33.97;;;;;;;8.39;100.00;100947.91;4851112;29;20950;-88
2022/12/26 02:18:10;;;;;;;40.63;35.33;;;;;;;8.43;100.00;100943.81;4837936;29;20037;-89
2022/12/26 02:20:52;;;;;;;42.33;36.17;;;;;;;8.43;100.00;100948.34;4837351;29;20097;-89
2022/12/26 02:23:36;;;;;;;39.50;35.13;;;;;;;8.44;100.00;100950.88;4835871;29;20033;-89
2022/12/26 02:26:26;;;;;;;41.03;35.60;;;;;;;8.42;100.00;100952.09;4852766;29;21750;-89
2022/12/26 02:29:19;;;;;;;41.73;36.90;;;;;;;8.47;100.00;100952.34;4843999;29;20528;-89
2022/12/26 02:32:10;;;;;;;40.37;35.97;;;;;;;8.52;100.00;100952.63;4849466;29;20108;-88
2022/12/26 02:35:14;;;;;;;39.37;35.10;;;;;;;8.50;100.00;100945.72;4850627;29;20398;-89
2022/12/26 02:38:17;;;;;;;38.57;34.43;;;;;;;8.52;100.00;100941.81;4841064;29;20424;-89
2022/12/26 02:40:57;;;;;;;36.90;32.97;;;;;;;8.52;100.00;100946.38;4842205;29;20030;-89
2022/12/26 02:47:11;;;;;;;36.13;32.43;;;;;;;8.45;100.00;100940.94;4778821;29;20050;-89
2022/12/26 03:13:09;;;;;;;34.83;31.20;;;;;;;8.50;100.00;100951.13;4831188;29;20066;-89
2022/12/26 03:13:28;;;;;;;29.73;26.83;;;;;;;8.58;100.00;100937.50;4850913;29;20052;-92
2022/12/26 03:17:18;;;;;;;31.43;28.43;;;;;;;8.53;100.00;100948.88;4851127;29;20049;-93
2022/12/26 03:18:21;;;;;;;31.00;27.90;;;;;;;8.57;100.00;100954.75;4853151;29;20507;-91
2022/12/26 03:20:48;;;;;;;29.00;26.20;;;;;;;8.52;100.00;100951.78;4855175;29;20041;-92
2022/12/26 03:23:16;;;;;;;28.87;26.07;;;;;;;8.54;100.00;100961.38;4856985;29;20036;-92
2022/12/26 03:28:40;;;;;;;27.03;24.33;;;;;;;8.58;100.00;100961.78;4855926;29;20041;-92
2022/12/26 03:31:09;;;;;;;26.80;24.17;;;;;;;8.58;100.00;100953.69;4851515;29;20092;-91
2022/12/26 03:36:34;;;;;;;22.53;20.23;;;;;;;8.58;100.00;100922.13;4856149;29;20517;-92
2022/12/26 04:20:51;;;;;;;14.70;12.73;;;;;;;8.42;100.00;100987.19;4829395;29;20939;-92
2022/12/26 04:46:20;;;;;;;11.00;9.80;;;;;;;8.35;100.00;100991.69;4849716;29;20102;-91
2022/12/26 04:51:33;;;;;;;11.43;9.97;;;;;;;8.27;100.00;100966.50;4851959;29;20103;-91
2022/12/26 04:53:58;;;;;;;11.37;9.77;;;;;;;8.21;100.00;100963.75;4834609;29;20486;-91
2022/12/26 04:56:24;;;;;;;10.87;9.77;;;;;;;8.16;100.00;100952.69;4848138;29;20116;-91
2022/12/26 04:58:49;;;;;;;12.23;10.40;;;;;;;8.10;100.00;100955.16;4844879;29;20049;-92
2022/12/26 05:09:35;;;;;;;10.33;9.33;;;;;;;8.20;100.00;100960.22;4843876;29;20057;-91
2022/12/26 05:12:07;;;;;;;9.77;8.77;;;;;;;8.15;100.00;100965.34;4840685;29;20302;-92
2022/12/26 05:14:34;;;;;;;11.17;9.23;;;;;;;8.18;100.00;100967.66;4835697;29;20034;-91
2022/12/26 05:30:58;;;;;;;12.00;10.60;;;;;;;8.06;100.00;100986.22;4850998;29;20106;-92
2022/12/26 05:36:08;;;;;;;12.33;10.60;;;;;;;8.07;100.00;100982.50;4849594;29;20057;-92
2022/12/26 05:38:35;;;;;;;11.97;9.57;;;;;;;8.14;100.00;100976.34;4855371;29;20430;-92
2022/12/26 05:41:00;;;;;;;12.57;10.03;;;;;;;8.11;100.00;100966.75;4837321;29;20030;-91
2022/12/26 05:43:26;;;;;;;13.27;9.70;;;;;;;8.09;100.00;100955.31;4839174;29;20753;-88
2022/12/26 05:45:51;;;;;;;11.67;9.13;;;;;;;8.06;100.00;100953.81;4837763;29;20083;-88
2022/12/26 05:48:17;;;;;;;11.03;9.23;;;;;;;8.07;100.00;100949.28;4852542;29;20089;-88
2022/12/26 05:50:42;;;;;;;10.87;9.17;;;;;;;8.06;100.00;100947.59;4842817;29;20033;-88
2022/12/26 05:53:07;;;;;;;11.33;9.30;;;;;;;8.10;100.00;100944.34;4838244;29;20112;-88
2022/12/26 05:55:33;;;;;;;11.60;9.43;;;;;;;8.03;100.00;100932.63;4819857;29;20045;-88
2022/12/26 05:57:59;;;;;;;11.60;9.00;;;;;;;8.03;100.00;100935.34;4837902;29;20033;-88
2022/12/26 06:00:26;;;;;;;12.57;9.30;;;;;;;8.01;100.00;100940.09;4857738;29;20052;-89
2022/12/26 06:02:51;;;;;;;11.30;8.93;;;;;;;8.02;100.00;100935.53;4856986;29;20185;-88
2022/12/26 06:05:17;;;;;;;11.10;8.83;;;;;;;8.01;100.00;100934.72;4835698;29;20148;-88
2022/12/26 06:07:43;;;;;;;10.90;9.07;;;;;;;8.02;100.00;100946.31;4839479;29;20033;-88
2022/12/26 06:10:09;;;;;;;11.37;8.93;;;;;;;8.03;100.00;100938.03;4835816;29;20029;-88
2022/12/26 06:12:34;;;;;;;11.10;8.53;;;;;;;8.02;100.00;100951.72;4839209;29;20043;-88
2022/12/26 06:15:00;;;;;;;10.17;8.23;;;;;;;8.01;100.00;100955.44;4851122;29;20174;-88
2022/12/26 06:17:25;;;;;;;10.00;8.20;;;;;;;8.01;100.00;100950.91;4857447;29;20038;-88
2022/12/26 06:19:50;;;;;;;9.70;8.00;;;;;;;8.15;100.00;100957.25;4850787;29;20034;-88
2022/12/26 06:22:16;;;;;;;9.97;7.83;;;;;;;8.05;100.00;100962.13;4835804;29;20041;-88
2022/12/26 06:24:41;;;;;;;9.50;7.83;;;;;;;8.07;100.00;100965.47;4835951;29;20048;-88
2022/12/26 06:27:07;;;;;;;9.50;8.27;;;;;;;8.09;100.00;100963.41;4841880;29;20053;-88
2022/12/26 06:29:32;;;;;;;10.43;8.30;;;;;;;8.07;100.00;100958.22;4838483;29;20880;-88
2022/12/26 06:31:57;;;;;;;9.27;7.87;;;;;;;8.15;100.00;100964.53;4839725;29;20903;-92
2022/12/26 06:34:23;;;;;;;9.40;7.87;;;;;;;8.10;100.00;100971.34;4835616;29;20040;-91
2022/12/26 06:36:48;;;;;;;10.73;8.07;;;;;;;8.09;100.00;100974.19;4845095;29;20910;-91
2022/12/26 06:39:14;;;;;;;8.90;7.63;;;;;;;8.17;100.00;100981.34;4848254;29;20149;-92
2022/12/26 06:41:39;;;;;;;9.47;7.60;;;;;;;8.17;100.00;100974.06;4844011;29;20443;-91
2022/12/26 06:44:05;;;;;;;10.30;8.07;;;;;;;8.15;100.00;100978.84;4822371;29;20109;-92
2022/12/26 06:46:30;;;;;;;9.50;7.43;;;;;;;8.22;100.00;100997.81;4852815;29;20037;-93
2022/12/26 06:48:55;;;;;;;9.00;7.40;;;;;;;8.11;100.00;100994.56;4835351;29;20041;-92
2022/12/26 06:51:24;;;;;;;9.77;7.17;;;;;;;8.19;100.00;100992.81;4838715;29;20041;-92
2022/12/26 06:53:51;;;;;;;9.10;7.50;;;;;;;8.10;100.00;100981.28;4834813;29;20033;-92
2022/12/26 06:56:21;;;;;;;8.53;7.63;;;;;;;8.13;100.00;100967.38;4855207;29;20048;-90
2022/12/26 06:58:47;;;;;;;8.97;7.03;;;;;;;8.12;100.00;100973.84;4855499;29;20408;-92
2022/12/26 07:01:15;;;;;;;8.43;7.23;;;;;;;8.15;100.00;100976.16;4850131;29;20040;-91
2022/12/26 07:03:41;;;;;;;8.43;6.73;;;;;;;8.12;100.00;100979.25;4840416;29;20026;-88
2022/12/26 07:06:20;;;;;;;9.47;6.87;;;;;;;8.03;100.00;100986.59;4834250;29;20026;-88
2022/12/26 07:08:46;;;;;;;7.13;6.43;;;;;;;8.06;100.00;100980.00;4832856;29;20483;-88
2022/12/26 07:11:16;;;;;;;7.50;6.70;;;;;;;8.04;100.00;100976.66;4839564;29;20035;-88
2022/12/26 07:13:44;;;;;;;7.27;6.17;;;;;;;8.10;100.00;100990.22;4834524;29;20040;-88
2022/12/26 07:16:10;;;;;;;7.47;5.90;;;;;;;8.04;100.00;100984.75;4813627;29;20038;-88
2022/12/26 07:18:36;;;;;;;7.37;5.67;;;;;;;8.16;100.00;100974.28;4849065;29;20371;-88
2022/12/26 07:21:06;;;;;;;8.20;5.80;;;;;;;8.16;100.00;100980.53;4838457;29;20501;-91
2022/12/26 07:23:32;;;;;;;7.40;5.53;;;;;;;8.14;100.00;100996.06;4831957;29;20495;-91
2022/12/26 07:25:58;;;;;;;7.03;5.30;;;;;;;8.13;100.00;100990.84;4849059;29;20117;-91
2022/12/26 07:28:24;;;;;;;7.37;5.57;;;;;;;8.10;100.00;100992.94;4840592;29;20115;-92
2022/12/26 07:30:50;;;;;;;9.30;5.20;;;;;;;8.10;100.00;101000.16;4837424;29;20112;-91
2022/12/26 07:33:16;;;;;;;7.40;5.10;;;;;;;8.11;100.00;101001.84;4838349;29;20110;-91
2022/12/26 07:35:41;;;;;;;6.50;4.87;;;;;;;8.13;100.00;101012.44;4840167;29;20033;-91
2022/12/26 07:38:07;;;;;;;6.10;4.57;;;;;;;8.17;100.00;101009.16;4835307;29;20037;-91
2022/12/26 07:40:32;;;;;;;6.73;4.67;;;;;;;8.09;100.00;101014.69;4833813;29;20549;-91
2022/12/26 07:42:58;;;;;;;6.67;4.53;;;;;;;8.13;100.00;101012.44;4841545;29;20033;-91
2022/12/26 07:45:23;;;;;;;7.87;4.20;;;;;;;8.07;100.00;101019.44;4835848;29;20053;-91
2022/12/26 07:47:55;;;;;;;7.17;4.40;;;;;;;8.08;100.00;101031.94;4833159;29;20033;-92
2022/12/26 07:50:22;;;;;;;8.50;4.57;;;;;;;8.06;100.00;101031.25;4835220;29;21093;-92
2022/12/26 07:52:48;;;;;;;6.33;4.50;;;;;;;8.10;100.00;101025.31;4836571;29;20089;-91
2022/12/26 07:55:14;;;;;;;5.70;4.20;;;;;;;8.08;100.00;101026.53;4836570;29;20128;-91
2022/12/26 07:57:40;;;;;;;7.97;4.93;;;;;;;8.08;100.00;101021.13;4854397;29;20156;-91
2022/12/26 08:00:06;;;;;;;6.00;4.60;;;;;;;8.04;100.00;101009.06;4836373;29;20551;-88
2022/12/26 08:02:32;;;;;;;6.70;4.70;;;;;;;8.07;100.00;101012.19;4836342;29;20113;-88
2022/12/26 08:04:57;;;;;;;7.83;4.50;;;;;;;8.07;100.00;101024.84;4833192;29;20117;-88
2022/12/26 08:07:23;;;;;;;6.30;4.83;;;;;;;8.03;100.00;101026.25;4837570;29;20120;-88
2022/12/26 08:09:48;;;;;;;6.97;4.90;;;;;;;8.07;100.00;101030.25;4848246;29;20121;-88
2022/12/26 08:12:13;;;;;;;10.40;4.93;;;;;;;8.05;100.00;101026.88;4853667;29;20049;-89
2022/12/26 08:14:39;;;;;;;9.83;5.13;;;;;;;8.06;100.00;101028.56;4850538;29;20029;-89
2022/12/26 08:17:05;;;;;;;9.57;5.07;;;;;;;8.04;100.00;101020.66;4851283;29;20538;-89
2022/12/26 08:19:30;;;;;;;8.10;5.00;;;;;;;8.08;100.00;101030.06;4835991;29;20061;-89
2022/12/26 08:21:56;;;;;;;7.57;4.70;;;;;;;8.16;100.00;101034.50;4850562;29;20090;-88
2022/12/26 08:24:21;;;;;;;8.10;4.43;;;;;;;8.20;100.00;101025.00;4853294;29;20066;-92
2022/12/26 08:26:47;;;;;;;7.37;4.57;;;;;;;8.27;100.00;101025.06;4838493;29;20108;-90
2022/12/26 08:29:12;;;;;;;4.80;4.20;;;;;;;8.27;100.00;101020.50;4839769;29;20029;-92
2022/12/26 08:31:38;;;;;;;7.17;4.40;;;;;;;8.34;100.00;101022.44;4821269;29;20456;-91
2022/12/26 08:34:03;;;;;;;6.07;4.40;;;;;;;8.35;100.00;101024.94;4837571;29;20109;-91
2022/12/26 08:36:29;;;;;;;6.77;4.13;;;;;;;8.41;100.00;101020.63;4850333;29;20053;-91
2022/12/26 08:38:56;;;;;;;5.50;4.20;;;;;;;8.50;100.00;101022.19;4835054;29;20138;-91
2022/12/26 08:41:21;;;;;;;11.47;4.43;;;;;;;8.63;100.00;101034.97;4839154;29;20419;-91
2022/12/26 08:43:49;;;;;;;5.90;4.10;;;;;;;8.75;100.00;101038.81;4838697;29;20025;-91
2022/12/26 08:46:15;;;;;;;6.03;3.70;;;;;;;8.85;100.00;101041.19;4837407;29;20194;-92
2022/12/26 08:48:40;;;;;;;6.90;3.50;;;;;;;8.86;100.00;101033.94;4840174;29;20021;-91
2022/12/26 08:51:10;;;;;;;5.60;3.43;;;;;;;8.90;100.00;101046.00;4839423;29;20040;-92
2022/12/26 08:53:36;;;;;;;6.03;3.43;;;;;;;8.87;100.00;101055.34;4833991;29;20041;-91
2022/12/26 08:56:04;;;;;;;7.27;3.73;;;;;;;8.95;100.00;101048.97;4835217;29;20041;-92
2022/12/26 08:58:29;;;;;;;6.33;3.40;;;;;;;9.06;100.00;101055.72;4834186;29;20097;-92
2022/12/26 09:01:04;;;;;;;4.53;3.10;;;;;;;9.14;100.00;101050.16;4846539;29;20121;-91
2022/12/26 09:03:29;;;;;;;5.68;3.70;;;;;;;9.17;100.00;101063.25;4839730;29;20064;-92
2022/12/26 09:05:58;;;;;;;6.00;3.67;;;;;;;9.23;100.00;101070.59;4836189;29;20026;-92
2022/12/26 09:08:24;;;;;;;7.90;3.60;;;;;;;9.28;100.00;101075.41;4851000;29;20034;-92
2022/12/26 09:10:49;;;;;;;5.03;3.60;;;;;;;9.29;100.00;101082.50;4836506;29;20463;-88
2022/12/26 09:13:14;;;;;;;5.90;3.37;;;;;;;9.32;100.00;101076.69;4848519;29;20178;-88
2022/12/26 09:15:40;;;;;;;7.73;3.67;;;;;;;9.25;100.00;101075.81;4833021;29;20045;-88
2022/12/26 09:18:06;;;;;;;4.70;3.43;;;;;;;9.24;100.00;101074.94;4850360;29;20036;-88
2022/12/26 09:20:32;;;;;;;7.23;3.47;;;;;;;9.25;100.00;101086.63;4836388;29;20120;-88
2022/12/26 09:22:58;;;;;;;5.73;3.20;;;;;;;9.24;100.00;101074.94;4838460;29;20048;-88
2022/12/26 09:25:25;;;;;;;5.80;3.00;;;;;;;9.18;100.00;101081.16;4832131;29;21019;-88
2022/12/26 09:27:52;;;;;;;6.27;3.30;;;;;;;9.29;100.00;101077.91;4849383;29;20026;-88
2022/12/26 09:30:19;;;;;;;7.87;2.83;;;;;;;9.28;100.00;101087.03;4839493;29;20033;-88
2022/12/26 09:32:45;;;;;;;7.13;3.27;;;;;;;9.25;100.00;101082.03;4833175;29;20060;-88
2022/12/26 09:35:10;;;;;;;5.90;2.70;;;;;;;9.34;100.00;101100.81;4836604;29;20049;-92
2022/12/26 09:37:35;;;;;;;4.63;2.80;;;;;;;9.38;100.00;101093.97;4838674;29;20102;-92
2022/12/26 09:40:03;;;;;;;5.77;2.53;;;;;;;9.33;100.00;101094.56;4846488;29;20124;-91
2022/12/26 09:42:31;;;;;;;4.43;2.30;;;;;;;9.34;100.00;101100.81;4854435;29;20482;-91
2022/12/26 09:45:17;;;;;;;5.67;2.50;;;;;;;9.37;100.00;101111.22;4834044;29;20041;-91
2022/12/26 09:48:03;;;;;;;7.23;2.57;;;;;;;9.46;100.00;101110.03;4854678;29;20017;-91
2022/12/26 09:50:32;;;;;;;5.33;2.40;;;;;;;9.36;100.00;101123.09;4840254;29;20078;-91
2022/12/26 09:53:03;;;;;;;4.83;2.20;;;;;;;9.37;100.00;101122.03;4845643;29;20929;-91
2022/12/26 09:55:45;;;;;;;3.57;2.03;;;;;;;9.34;100.00;101125.97;4854568;29;20081;-92
2022/12/26 09:58:40;;;;;;;3.80;2.10;;;;;;;9.33;100.00;101115.34;4837782;29;20101;-91
2022/12/26 10:01:22;;;;;;;5.75;2.50;;;;;;;9.38;100.00;101129.13;4842040;29;21817;-90
2022/12/26 10:03:57;;;;;;;7.43;2.40;;;;;;;9.37;100.00;101113.94;4847617;29;20403;-90
2022/12/26 10:06:25;;;;;;;5.63;2.40;;;;;;;9.39;100.00;101126.22;4851328;29;20500;-92
2022/12/26 10:09:21;;;;;;;6.13;2.20;;;;;;;9.42;100.00;101130.41;4836387;29;20025;-92
2022/12/26 10:12:03;;;;;;;5.07;2.43;;;;;;;9.44;100.00;101133.75;4835006;29;20030;-91
2022/12/26 10:14:47;;;;;;;3.93;2.00;;;;;;;9.43;100.00;101143.72;4836991;29;20065;-91
2022/12/26 10:17:31;;;;;;;4.78;2.30;;;;;;;9.47;100.00;101136.06;4845458;29;20101;-91
2022/12/26 10:20:27;;;;;;;7.80;2.47;;;;;;;9.49;100.00;101146.69;4855792;29;20125;-91
2022/12/26 10:23:20;;;;;;;5.70;2.20;;;;;;;9.46;100.00;101153.31;4840814;29;20117;-90
2022/12/26 10:25:52;;;;;;;7.07;2.53;;;;;;;9.41;100.00;101143.09;4833574;29;20136;-91
2022/12/26 10:28:24;;;;;;;4.93;2.53;;;;;;;9.38;100.00;101154.28;4837983;29;20112;-91
2022/12/26 10:30:53;;;;;;;6.43;2.50;;;;;;;9.37;100.00;101162.59;4851472;29;20033;-91
2022/12/26 10:33:35;;;;;;;7.83;3.00;;;;;;;9.31;100.00;101198.56;4841424;29;20041;-92
2022/12/26 10:36:01;;;;;;;3.80;2.10;;;;;;;8.97;100.00;101203.63;4838727;29;20085;-91
2022/12/26 10:38:43;;;;;;;8.50;2.57;;;;;;;8.75;100.00;101210.91;4834777;29;20050;-92
2022/12/26 10:41:25;;;;;;;12.20;2.73;;;;;;;8.54;100.00;101215.25;4841918;29;20578;-91
2022/12/26 10:43:51;;;;;;;8.23;2.47;;;;;;;8.42;100.00;101211.31;4838412;29;20032;-91
2022/12/26 10:46:49;;;;;;;8.77;2.30;;;;;;;8.35;100.00;101207.69;4842350;29;20036;-91
2022/12/26 10:49:19;;;;;;;7.93;2.80;;;;;;;8.16;100.00;101212.66;4840717;29;20093;-90
2022/12/26 10:51:44;;;;;;;11.70;2.73;;;;;;;8.11;100.00;101215.88;4849960;29;20082;-92
2022/12/26 10:54:15;;;;;;;8.93;2.50;;;;;;;8.10;100.00;101224.19;4836112;29;21871;-90
2022/12/26 10:56:41;;;;;;;9.83;2.27;;;;;;;8.05;100.00;101227.44;4834308;29;20116;-91
2022/12/26 10:59:14;;;;;;;14.60;3.07;;;;;;;7.99;100.00;101241.66;4840347;29;20392;-91
2022/12/26 11:01:46;;;;;;;11.97;2.83;;;;;;;7.94;100.00;101235.97;4839021;29;20025;-91
2022/12/26 11:04:21;;;;;;;9.80;2.53;;;;;;;7.89;100.00;101239.25;4839481;29;20040;-92
2022/12/26 11:06:51;;;;;;;10.77;2.70;;;;;;;7.87;100.00;101245.84;4850591;29;20133;-92
2022/12/26 11:09:38;;;;;;;8.67;1.97;;;;;;;7.89;100.00;101258.13;4852367;29;20038;-90
2022/12/26 11:12:04;;;;;;;9.73;2.37;;;;;;;7.82;100.00;101272.53;4835205;29;20530;-90
2022/12/26 11:14:35;;;;;;;9.30;2.67;;;;;;;7.76;100.00;101256.06;4854356;29;20057;-92
2022/12/26 11:17:07;;;;;;;11.13;2.97;;;;;;;7.74;100.00;101259.97;4838639;29;20522;-92
2022/12/26 11:19:38;;;;;;;14.07;3.13;;;;;;;7.70;100.00;101278.38;4837504;29;20053;-91
2022/12/26 11:22:19;;;;;;;16.07;3.63;;;;;;;7.67;100.00;101288.66;4832809;29;20470;-91
2022/12/26 11:24:44;;;;;;;17.03;3.53;;;;;;;7.63;100.00;101281.97;4835713;29;20125;-91
2022/12/26 11:27:19;;;;;;;14.67;3.80;;;;;;;7.65;100.00;101283.47;4835993;29;20030;-92
2022/12/26 11:29:44;;;;;;;13.13;3.28;;;;;;;7.57;100.00;101278.13;4852888;29;20025;-91
2022/12/26 11:32:19;;;;;;;13.70;3.37;;;;;;;7.60;100.00;101278.63;4850269;29;20980;-91
2022/12/26 11:34:48;;;;;;;16.50;3.90;;;;;;;7.52;100.00;101276.00;4833694;29;20037;-91
2022/12/26 11:37:36;;;;;;;10.33;3.40;;;;;;;7.64;100.00;101276.38;4838392;29;20462;-92
2022/12/26 11:40:03;;;;;;;15.63;3.63;;;;;;;7.54;100.00;101298.22;4835525;29;20069;-91
2022/12/26 11:42:32;;;;;;;14.07;3.57;;;;;;;7.49;100.00;101297.91;4840326;29;20037;-91
2022/12/26 11:45:11;;;;;;;12.20;4.20;;;;;;;7.49;100.00;101295.22;4820102;29;20033;-91
2022/12/26 11:47:44;;;;;;;15.67;3.60;;;;;;;7.48;100.00;101298.94;4837182;29;20027;-91
2022/12/26 11:50:19;;;;;;;12.47;3.47;;;;;;;7.46;100.00;101309.06;4844778;29;20042;-91
2022/12/26 11:53:02;;;;;;;15.43;3.63;;;;;;;7.48;100.00;101315.13;4837714;29;20033;-92
2022/12/26 11:55:30;;;;;;;13.23;3.30;;;;;;;7.50;100.00;101315.78;4854046;29;20034;-91
2022/12/26 11:58:17;;;;;;;16.73;3.87;;;;;;;7.69;100.00;101314.44;4838589;29;20032;-91
2022/12/26 12:00:48;;;;;;;12.93;3.47;;;;;;;7.93;100.00;101326.88;4839610;29;20034;-91
2022/12/26 12:03:21;;;;;;;11.13;3.23;;;;;;;7.96;100.00;101330.25;4847314;29;20049;-92
2022/12/26 12:06:10;;;;;;;12.50;3.40;;;;;;;8.23;100.00;101329.66;4848334;29;20089;-92
2022/12/26 12:09:15;;;;;;;9.20;2.60;;;;;;;8.09;100.00;101325.03;4836909;29;20032;-92
2022/12/26 12:12:05;;;;;;;14.13;3.10;;;;;;;7.87;100.00;101338.41;4839061;29;20478;-92
2022/12/26 12:15:08;;;;;;;13.90;2.97;;;;;;;7.46;100.00;101352.19;4837742;29;20033;-92
2022/12/26 12:17:43;;;;;;;11.33;3.20;;;;;;;7.25;100.00;101342.91;4832114;29;20386;-91
2022/12/26 12:20:31;;;;;;;12.33;3.00;;;;;;;7.20;100.00;101347.97;4834630;29;20037;-91
2022/12/26 12:23:21;;;;;;;11.37;2.87;;;;;;;7.14;100.00;101343.31;4833761;29;20065;-91
2022/12/26 12:26:13;;;;;;;13.40;2.80;;;;;;;7.08;100.00;101338.63;4853067;29;20452;-92
2022/12/26 12:29:26;;;;;;;12.10;2.90;;;;;;;7.19;100.00;101338.22;4829343;29;20071;-91
2022/12/26 12:32:07;;;;;;;12.30;3.27;;;;;;;7.19;100.00;101335.50;4832430;29;20045;-91
2022/12/26 12:35:18;;;;;;;15.47;3.20;;;;;;;7.17;100.00;101348.34;4833597;29;20112;-91
2022/12/26 12:37:52;;;;;;;11.90;3.07;;;;;;;7.08;100.00;101344.00;4840135;29;20169;-91
2022/12/26 12:40:18;;;;;;;;;;;;;;;7.18;100.00;101355.41;4840585;29;20041;-91
2022/12/26 12:42:58;;;;;;;11.67;3.23;;;;;;;7.04;100.00;101345.38;4840546;29;19920;-92
2022/12/26 12:45:45;;;;;;;10.33;2.90;;;;;;;7.07;100.00;101355.78;4849484;29;20041;-91
2022/12/26 12:48:24;;;;;;;6.77;2.10;;;;;;;6.95;100.00;101357.19;4851587;29;20064;-92
2022/12/26 12:51:16;;;;;;;10.57;2.60;;;;;;;6.96;100.00;101351.63;4851444;29;20038;-91
2022/12/26 12:53:44;;;;;;;8.80;2.50;;;;;;;6.86;100.00;101368.00;4852310;29;20048;-91
2022/12/26 12:56:43;;;;;;;9.30;2.10;;;;;;;6.93;100.00;101371.72;4836746;29;20033;-91
2022/12/26 12:59:21;;;;;;;12.60;2.70;;;;;;;6.79;100.00;101380.50;4836489;29;20041;-92
2022/12/26 13:01:54;;;;;;;9.80;2.37;;;;;;;6.72;100.00;101383.06;4834510;29;20041;-90
2022/12/26 13:04:31;;;;;;;10.87;2.70;;;;;;;6.78;100.00;101386.91;4839515;29;20036;-90
2022/12/26 13:07:08;;;;;;;11.53;2.50;;;;;;;6.73;100.00;101378.50;4832460;29;21655;-91
2022/12/26 13:09:44;;;;;;;11.67;2.77;;;;;;;6.72;100.00;101374.97;4853575;29;20094;-90
2022/12/26 13:12:34;;;;;;;6.83;2.43;;;;;;;6.79;100.00;101380.50;4831870;29;20431;-90
2022/12/26 13:15:05;;;;;;;8.97;2.30;;;;;;;6.76;100.00;101383.56;4852766;29;20026;-91
2022/12/26 13:17:43;;;;;;;9.53;2.57;;;;;;;6.77;100.00;101387.91;4836334;29;20041;-91
2022/12/26 13:20:08;;;;;;;12.43;3.63;;;;;;;6.87;100.00;101390.41;4832995;29;20509;-91
2022/12/26 13:25:28;;;;;;;8.00;2.27;;;;;;;6.70;99.77;101379.69;4844000;29;20051;-90
2022/12/26 13:28:08;;;;;;;9.53;2.20;;;;;;;6.63;97.60;101389.47;4834382;29;20589;-90
2022/12/26 13:30:34;;;;;;;5.03;1.90;;;;;;;6.56;96.98;101383.94;4838578;29;20033;-91
2022/12/26 13:33:01;;;;;;;8.07;2.00;;;;;;;6.48;94.93;101380.44;4805713;29;20049;-88
2022/12/26 13:36:00;;;;;;;6.23;1.80;;;;;;;6.45;96.81;101392.38;4840642;29;20026;-87
2022/12/26 13:38:57;;;;;;;7.33;1.97;;;;;;;6.39;97.25;101399.28;4855172;29;20120;-88
2022/12/26 13:44:18;;;;;;;4.97;1.60;;;;;;;6.50;97.03;101411.56;4852533;29;20088;-88
2022/12/26 13:46:46;;;;;;;8.50;2.00;;;;;;;6.44;93.32;101412.22;4852318;29;20124;-88
2022/12/26 13:49:34;;;;;;;6.80;1.70;;;;;;;6.47;94.08;101417.25;4833931;29;20472;-87
2022/12/26 13:52:09;;;;;;;4.53;1.63;;;;;;;6.41;93.97;101417.97;4853808;29;20490;-88